sensor_id;sensor_type;location;lat;lon;timestamp;pressure;altitude;pressure_sealevel;temperature;humidity
28344;BME280;15597;50.914;6.638;2024-02-14T00:01:48;100827.84;;;12.48;54.98
28344;BME280;15597;50.914;6.638;2024-02-14T00:04:14;100822.59;;;12.48;55.17
28344;BME280;15597;50.914;6.638;2024-02-14T00:06:40;100812.09;;;12.48;54.88
28344;BME280;15597;50.914;6.638;2024-02-14T00:09:06;100820.81;;;12.49;54.99
28344;BME280;15597;50.914;6.638;2024-02-14T00:11:32;100816.56;;;12.45;55.25
28344;BME280;15597;50.914;6.638;2024-02-14T00:13:58;100816.56;;;12.45;55.12
28344;BME280;15597;50.914;6.638;2024-02-14T00:16:25;100811.31;;;12.45;55.08
28344;BME280;15597;50.914;6.638;2024-02-14T00:18:51;100813.94;;;12.45;54.95
28344;BME280;15597;50.914;6.638;2024-02-14T00:21:16;100818.28;;;12.46;55.29
28344;BME280;15597;50.914;6.638;2024-02-14T00:23:42;100808.69;;;12.45;55.22
28344;BME280;15597;50.914;6.638;2024-02-14T00:26:09;100806.06;;;12.45;55.42
28344;BME280;15597;50.914;6.638;2024-02-14T00:28:34;100792.13;;;12.42;55.48
28344;BME280;15597;50.914;6.638;2024-02-14T00:31:00;100803.50;;;12.41;55.43
28344;BME280;15597;50.914;6.638;2024-02-14T00:33:46;100808.75;;;12.41;55.63
28344;BME280;15597;50.914;6.638;2024-02-14T00:36:11;100809.66;;;12.40;55.21
28344;BME280;15597;50.914;6.638;2024-02-14T00:38:37;100811.38;;;12.41;55.56
28344;BME280;15597;50.914;6.638;2024-02-14T00:41:03;100802.69;;;12.39;55.64
28344;BME280;15597;50.914;6.638;2024-02-14T00:43:29;100804.41;;;12.40;55.43
28344;BME280;15597;50.914;6.638;2024-02-14T00:45:54;100803.56;;;12.40;55.42
28344;BME280;15597;50.914;6.638;2024-02-14T00:48:22;100795.63;;;12.41;55.78
28344;BME280;15597;50.914;6.638;2024-02-14T00:50:48;100800.88;;;12.41;55.48
28344;BME280;15597;50.914;6.638;2024-02-14T00:53:14;100801.78;;;12.40;55.85
28344;BME280;15597;50.914;6.638;2024-02-14T00:55:39;100792.19;;;12.39;55.73
28344;BME280;15597;50.914;6.638;2024-02-14T00:58:05;100801.78;;;12.40;55.79
28344;BME280;15597;50.914;6.638;2024-02-14T01:00:31;100793.06;;;12.40;55.68
28344;BME280;15597;50.914;6.638;2024-02-14T01:02:57;100786.03;;;12.42;55.75
28344;BME280;15597;50.914;6.638;2024-02-14T01:05:23;100784.25;;;12.42;55.71
28344;BME280;15597;50.914;6.638;2024-02-14T01:07:49;100780.72;;;12.44;55.65
28344;BME280;15597;50.914;6.638;2024-02-14T01:10:15;100786.78;;;12.46;55.46
28344;BME280;15597;50.914;6.638;2024-02-14T01:12:40;100788.50;;;12.47;55.57
28344;BME280;15597;50.914;6.638;2024-02-14T01:15:06;100780.59;;;12.48;55.89
28344;BME280;15597;50.914;6.638;2024-02-14T01:17:33;100779.72;;;12.48;55.79
28344;BME280;15597;50.914;6.638;2024-02-14T01:20:02;100766.59;;;12.48;55.85
28344;BME280;15597;50.914;6.638;2024-02-14T01:22:29;100769.22;;;12.48;55.84
28344;BME280;15597;50.914;6.638;2024-02-14T01:25:03;100772.69;;;12.50;55.72
28344;BME280;15597;50.914;6.638;2024-02-14T01:27:30;100770.88;;;12.52;55.70
28344;BME280;15597;50.914;6.638;2024-02-14T01:29:56;100772.66;;;12.51;55.78
28344;BME280;15597;50.914;6.638;2024-02-14T01:32:22;100774.31;;;12.54;55.72
28344;BME280;15597;50.914;6.638;2024-02-14T01:34:48;100771.63;;;12.57;55.65
28344;BME280;15597;50.914;6.638;2024-02-14T01:37:14;100785.63;;;12.57;55.47
28344;BME280;15597;50.914;6.638;2024-02-14T01:39:39;100777.75;;;12.56;55.90
28344;BME280;15597;50.914;6.638;2024-02-14T01:42:05;100790.00;;;12.57;55.75
28344;BME280;15597;50.914;6.638;2024-02-14T01:44:33;100780.31;;;12.59;55.92
28344;BME280;15597;50.914;6.638;2024-02-14T01:46:59;100769.78;;;12.61;55.63
28344;BME280;15597;50.914;6.638;2024-02-14T01:49:26;100754.88;;;12.61;55.75
28344;BME280;15597;50.914;6.638;2024-02-14T01:51:55;100758.41;;;12.60;55.79
28344;BME280;15597;50.914;6.638;2024-02-14T01:54:23;100761.91;;;12.61;56.04
28344;BME280;15597;50.914;6.638;2024-02-14T01:56:50;100763.72;;;12.59;55.92
28344;BME280;15597;50.914;6.638;2024-02-14T01:59:15;100760.22;;;12.58;55.89
28344;BME280;15597;50.914;6.638;2024-02-14T02:01:42;100761.13;;;12.57;56.02
28344;BME280;15597;50.914;6.638;2024-02-14T02:04:08;100775.13;;;12.56;55.98
28344;BME280;15597;50.914;6.638;2024-02-14T02:06:33;100759.44;;;12.54;56.20
28344;BME280;15597;50.914;6.638;2024-02-14T02:08:59;100770.78;;;12.55;55.76
28344;BME280;15597;50.914;6.638;2024-02-14T02:11:25;100767.25;;;12.56;56.05
28344;BME280;15597;50.914;6.638;2024-02-14T02:14:11;100766.44;;;12.54;56.09
28344;BME280;15597;50.914;6.638;2024-02-14T02:16:58;100770.78;;;12.55;56.30
28344;BME280;15597;50.914;6.638;2024-02-14T02:19:43;100763.81;;;12.54;56.15
28344;BME280;15597;50.914;6.638;2024-02-14T02:22:29;100764.69;;;12.54;56.28
28344;BME280;15597;50.914;6.638;2024-02-14T02:25:15;100765.53;;;12.55;56.14
28344;BME280;15597;50.914;6.638;2024-02-14T02:28:00;100762.91;;;12.55;56.41
28344;BME280;15597;50.914;6.638;2024-02-14T02:30:31;100770.78;;;12.55;56.29
28344;BME280;15597;50.914;6.638;2024-02-14T02:32:57;100771.63;;;12.57;56.15
28344;BME280;15597;50.914;6.638;2024-02-14T02:35:23;100786.47;;;12.58;56.33
28344;BME280;15597;50.914;6.638;2024-02-14T02:38:09;100799.63;;;12.56;56.42
28344;BME280;15597;50.914;6.638;2024-02-14T02:40:55;100798.75;;;12.56;56.54
28344;BME280;15597;50.914;6.638;2024-02-14T02:43:40;100798.75;;;12.57;56.40
28344;BME280;15597;50.914;6.638;2024-02-14T02:46:24;100808.34;;;12.59;56.26
28344;BME280;15597;50.914;6.638;2024-02-14T02:49:11;100804.81;;;12.60;56.46
28344;BME280;15597;50.914;6.638;2024-02-14T02:51:39;100803.84;;;12.62;56.46
28344;BME280;15597;50.914;6.638;2024-02-14T02:54:24;100799.41;;;12.64;56.32
28344;BME280;15597;50.914;6.638;2024-02-14T02:57:10;100788.00;;;12.65;56.52
28344;BME280;15597;50.914;6.638;2024-02-14T02:59:36;100797.63;;;12.66;56.32
28344;BME280;15597;50.914;6.638;2024-02-14T03:02:03;100798.50;;;12.65;56.28
28344;BME280;15597;50.914;6.638;2024-02-14T03:04:49;100795.06;;;12.63;56.51
28344;BME280;15597;50.914;6.638;2024-02-14T03:07:36;100800.41;;;12.60;56.32
28344;BME280;15597;50.914;6.638;2024-02-14T03:10:22;100799.59;;;12.58;56.87
28344;BME280;15597;50.914;6.638;2024-02-14T03:13:07;100796.13;;;12.57;56.87
28344;BME280;15597;50.914;6.638;2024-02-14T03:15:59;100791.78;;;12.55;57.06
28344;BME280;15597;50.914;6.638;2024-02-14T03:18:25;100791.72;;;12.58;57.14
28344;BME280;15597;50.914;6.638;2024-02-14T03:20:51;100790.78;;;12.61;56.76
28344;BME280;15597;50.914;6.638;2024-02-14T03:23:19;100791.53;;;12.64;56.78
28344;BME280;15597;50.914;6.638;2024-02-14T03:25:45;100803.78;;;12.65;56.79
28344;BME280;15597;50.914;6.638;2024-02-14T03:28:11;100802.03;;;12.66;57.03
28344;BME280;15597;50.914;6.638;2024-02-14T03:30:38;100801.97;;;12.67;56.99
28344;BME280;15597;50.914;6.638;2024-02-14T03:33:07;100806.28;;;12.70;57.01
28344;BME280;15597;50.914;6.638;2024-02-14T03:35:36;100797.50;;;12.71;57.03
28344;BME280;15597;50.914;6.638;2024-02-14T03:38:02;100790.47;;;12.71;56.87
28344;BME280;15597;50.914;6.638;2024-02-14T03:40:28;100790.44;;;12.73;57.05
28344;BME280;15597;50.914;6.638;2024-02-14T03:42:58;100789.59;;;12.73;57.01
28344;BME280;15597;50.914;6.638;2024-02-14T03:45:24;100788.63;;;12.75;57.15
28344;BME280;15597;50.914;6.638;2024-02-14T03:47:49;100800.03;;;12.76;56.94
28344;BME280;15597;50.914;6.638;2024-02-14T03:50:15;100793.00;;;12.76;56.75
28344;BME280;15597;50.914;6.638;2024-02-14T03:52:41;100797.25;;;12.80;56.75
28344;BME280;15597;50.914;6.638;2024-02-14T03:55:08;100797.16;;;12.83;56.86
28344;BME280;15597;50.914;6.638;2024-02-14T03:57:39;100790.25;;;12.81;56.61
28344;BME280;15597;50.914;6.638;2024-02-14T04:00:05;100789.34;;;12.82;56.96
28344;BME280;15597;50.914;6.638;2024-02-14T04:02:39;100793.94;;;12.74;57.07
28344;BME280;15597;50.914;6.638;2024-02-14T04:05:05;100799.16;;;12.75;56.88
28344;BME280;15597;50.914;6.638;2024-02-14T04:07:32;100804.28;;;12.80;57.18
28344;BME280;15597;50.914;6.638;2024-02-14T04:09:59;100796.25;;;12.84;57.08
28344;BME280;15597;50.914;6.638;2024-02-14T04:12:25;100803.13;;;12.90;57.16
28344;BME280;15597;50.914;6.638;2024-02-14T04:14:51;100813.53;;;12.93;56.89
28344;BME280;15597;50.914;6.638;2024-02-14T04:17:16;100815.25;;;12.94;56.93
28344;BME280;15597;50.914;6.638;2024-02-14T04:19:43;100814.38;;;12.95;56.77
28344;BME280;15597;50.914;6.638;2024-02-14T04:22:08;100823.16;;;12.94;56.85
28344;BME280;15597;50.914;6.638;2024-02-14T04:24:34;100828.34;;;12.96;56.47
28344;BME280;15597;50.914;6.638;2024-02-14T04:27:00;100818.72;;;12.96;56.43
28344;BME280;15597;50.914;6.638;2024-02-14T04:29:28;100823.06;;;12.97;56.19
28344;BME280;15597;50.914;6.638;2024-02-14T04:31:56;100819.53;;;12.98;56.32
28344;BME280;15597;50.914;6.638;2024-02-14T04:34:22;100818.63;;;12.99;56.31
28344;BME280;15597;50.914;6.638;2024-02-14T04:36:48;100823.81;;;13.01;56.47
28344;BME280;15597;50.914;6.638;2024-02-14T04:39:13;100817.72;;;13.00;56.25
28344;BME280;15597;50.914;6.638;2024-02-14T04:41:39;100816.84;;;13.00;56.66
28344;BME280;15597;50.914;6.638;2024-02-14T04:44:05;100816.00;;;12.99;56.42
28344;BME280;15597;50.914;6.638;2024-02-14T04:46:33;100809.94;;;12.97;56.73
28344;BME280;15597;50.914;6.638;2024-02-14T04:49:03;100805.59;;;12.95;56.65
28344;BME280;15597;50.914;6.638;2024-02-14T04:51:29;100810.09;;;12.91;56.66
28344;BME280;15597;50.914;6.638;2024-02-14T04:53:55;100813.63;;;12.90;57.27
28344;BME280;15597;50.914;6.638;2024-02-14T04:56:26;100814.88;;;12.77;57.23
28344;BME280;15597;50.914;6.638;2024-02-14T04:58:53;100817.56;;;12.74;57.32
28344;BME280;15597;50.914;6.638;2024-02-14T05:01:19;100812.34;;;12.74;57.53
28344;BME280;15597;50.914;6.638;2024-02-14T05:03:44;100826.31;;;12.74;57.44
28344;BME280;15597;50.914;6.638;2024-02-14T05:06:10;100813.16;;;12.76;57.28
28344;BME280;15597;50.914;6.638;2024-02-14T05:08:35;100832.34;;;12.78;56.98
28344;BME280;15597;50.914;6.638;2024-02-14T05:11:01;100829.72;;;12.78;57.49
28344;BME280;15597;50.914;6.638;2024-02-14T05:13:26;100834.00;;;12.80;57.39
28344;BME280;15597;50.914;6.638;2024-02-14T05:15:52;100843.59;;;12.83;57.19
28344;BME280;15597;50.914;6.638;2024-02-14T05:18:18;100839.16;;;12.85;57.18
28344;BME280;15597;50.914;6.638;2024-02-14T05:20:44;100835.72;;;12.83;56.92
28344;BME280;15597;50.914;6.638;2024-02-14T05:23:09;100842.72;;;12.82;57.04
28344;BME280;15597;50.914;6.638;2024-02-14T05:25:36;100845.31;;;12.84;56.96
28344;BME280;15597;50.914;6.638;2024-02-14T05:28:02;100845.22;;;12.87;57.25
28344;BME280;15597;50.914;6.638;2024-02-14T05:30:27;100856.50;;;12.91;57.24
28344;BME280;15597;50.914;6.638;2024-02-14T05:33:04;100845.06;;;12.93;57.57
28344;BME280;15597;50.914;6.638;2024-02-14T05:35:29;100851.94;;;12.97;57.36
28344;BME280;15597;50.914;6.638;2024-02-14T05:37:55;100852.78;;;12.99;57.36
28344;BME280;15597;50.914;6.638;2024-02-14T05:40:21;100855.34;;;13.01;57.57
28344;BME280;15597;50.914;6.638;2024-02-14T05:42:46;100848.34;;;13.02;57.25
28344;BME280;15597;50.914;6.638;2024-02-14T05:45:12;100853.59;;;13.02;57.45
28344;BME280;15597;50.914;6.638;2024-02-14T05:47:38;100855.41;;;12.99;57.49
28344;BME280;15597;50.914;6.638;2024-02-14T05:50:05;100857.97;;;13.01;57.30
28344;BME280;15597;50.914;6.638;2024-02-14T05:52:32;100858.84;;;13.02;57.39
28344;BME280;15597;50.914;6.638;2024-02-14T05:54:57;100856.22;;;13.02;57.76
28344;BME280;15597;50.914;6.638;2024-02-14T05:57:23;100853.59;;;13.02;57.70
28344;BME280;15597;50.914;6.638;2024-02-14T05:59:49;100860.66;;;12.99;57.41
28344;BME280;15597;50.914;6.638;2024-02-14T06:02:15;100851.94;;;12.97;57.60
28344;BME280;15597;50.914;6.638;2024-02-14T06:04:40;100848.50;;;12.95;57.27
28344;BME280;15597;50.914;6.638;2024-02-14T06:07:08;100859.00;;;12.95;57.26
28344;BME280;15597;50.914;6.638;2024-02-14T06:09:36;100857.28;;;12.94;57.47
28344;BME280;15597;50.914;6.638;2024-02-14T06:12:02;100859.84;;;12.96;57.85
28344;BME280;15597;50.914;6.638;2024-02-14T06:14:28;100854.59;;;12.97;57.63
28344;BME280;15597;50.914;6.638;2024-02-14T06:16:56;100851.13;;;12.95;57.67
28344;BME280;15597;50.914;6.638;2024-02-14T06:19:25;100853.78;;;12.94;57.88
28344;BME280;15597;50.914;6.638;2024-02-14T06:21:50;100863.38;;;12.95;57.73
28344;BME280;15597;50.914;6.638;2024-02-14T06:24:16;100852.03;;;12.94;57.77
28344;BME280;15597;50.914;6.638;2024-02-14T06:26:45;100862.53;;;12.94;58.15
28344;BME280;15597;50.914;6.638;2024-02-14T06:29:10;100862.53;;;12.94;57.77
28344;BME280;15597;50.914;6.638;2024-02-14T06:31:36;100850.31;;;12.93;57.85
28344;BME280;15597;50.914;6.638;2024-02-14T06:34:02;100862.53;;;12.94;58.26
28344;BME280;15597;50.914;6.638;2024-02-14T06:36:27;100859.84;;;12.97;58.20
28344;BME280;15597;50.914;6.638;2024-02-14T06:38:53;100864.19;;;12.98;58.13
28344;BME280;15597;50.914;6.638;2024-02-14T06:41:18;100858.94;;;12.98;57.82
28344;BME280;15597;50.914;6.638;2024-02-14T06:43:46;100859.78;;;12.99;57.88
28344;BME280;15597;50.914;6.638;2024-02-14T06:46:11;100855.41;;;12.99;57.64
28344;BME280;15597;50.914;6.638;2024-02-14T06:48:41;100858.84;;;13.02;58.20
28344;BME280;15597;50.914;6.638;2024-02-14T06:51:07;100875.38;;;13.05;58.18
28344;BME280;15597;50.914;6.638;2024-02-14T06:53:33;100867.47;;;13.07;58.39
28344;BME280;15597;50.914;6.638;2024-02-14T06:55:59;100864.00;;;13.05;57.99
28344;BME280;15597;50.914;6.638;2024-02-14T06:58:24;100874.53;;;13.05;57.98
28344;BME280;15597;50.914;6.638;2024-02-14T07:00:50;100878.91;;;13.04;57.85
28344;BME280;15597;50.914;6.638;2024-02-14T07:03:16;100887.66;;;13.05;57.84
28344;BME280;15597;50.914;6.638;2024-02-14T07:05:41;100886.84;;;13.03;57.83
28344;BME280;15597;50.914;6.638;2024-02-14T07:08:07;100892.09;;;13.03;57.74
28344;BME280;15597;50.914;6.638;2024-02-14T07:10:33;100888.56;;;13.04;57.77
28344;BME280;15597;50.914;6.638;2024-02-14T07:12:58;100899.06;;;13.04;57.58
28344;BME280;15597;50.914;6.638;2024-02-14T07:15:24;100894.72;;;13.03;57.70
28344;BME280;15597;50.914;6.638;2024-02-14T07:17:54;100890.38;;;13.02;57.87
28344;BME280;15597;50.914;6.638;2024-02-14T07:20:21;100890.38;;;13.00;57.85
28344;BME280;15597;50.914;6.638;2024-02-14T07:22:46;100893.91;;;13.00;57.87
28344;BME280;15597;50.914;6.638;2024-02-14T07:25:21;100897.38;;;13.01;57.75
28344;BME280;15597;50.914;6.638;2024-02-14T07:27:46;100891.28;;;13.00;57.73
28344;BME280;15597;50.914;6.638;2024-02-14T07:30:16;100904.41;;;13.00;57.73
28344;BME280;15597;50.914;6.638;2024-02-14T07:32:43;100906.13;;;13.02;57.84
28344;BME280;15597;50.914;6.638;2024-02-14T07:35:09;100904.31;;;13.04;57.42
28344;BME280;15597;50.914;6.638;2024-02-14T07:37:34;100910.41;;;13.06;57.46
28344;BME280;15597;50.914;6.638;2024-02-14T07:40:00;100902.44;;;13.09;57.77
28344;BME280;15597;50.914;6.638;2024-02-14T07:42:25;100905.88;;;13.11;57.79
28344;BME280;15597;50.914;6.638;2024-02-14T07:44:51;100905.81;;;13.12;57.41
28344;BME280;15597;50.914;6.638;2024-02-14T07:47:16;100902.34;;;13.12;57.67
28344;BME280;15597;50.914;6.638;2024-02-14T07:49:42;100910.16;;;13.13;57.73
28344;BME280;15597;50.914;6.638;2024-02-14T07:52:08;100910.97;;;13.17;57.08
28344;BME280;15597;50.914;6.638;2024-02-14T07:54:39;100915.31;;;13.18;57.75
28344;BME280;15597;50.914;6.638;2024-02-14T07:57:04;100916.16;;;13.19;57.15
28344;BME280;15597;50.914;6.638;2024-02-14T07:59:30;100908.28;;;13.19;57.23
28344;BME280;15597;50.914;6.638;2024-02-14T08:01:56;100905.72;;;13.17;57.57
28344;BME280;15597;50.914;6.638;2024-02-14T08:04:23;100909.16;;;13.19;57.52
28344;BME280;15597;50.914;6.638;2024-02-14T08:06:49;100905.63;;;13.20;57.81
28344;BME280;15597;50.914;6.638;2024-02-14T08:09:15;100902.09;;;13.21;57.46
28344;BME280;15597;50.914;6.638;2024-02-14T08:11:41;100913.44;;;13.23;57.51
28344;BME280;15597;50.914;6.638;2024-02-14T08:14:06;100911.63;;;13.25;57.78
28344;BME280;15597;50.914;6.638;2024-02-14T08:16:32;100927.34;;;13.27;57.46
28344;BME280;15597;50.914;6.638;2024-02-14T08:18:58;100923.81;;;13.28;57.73
28344;BME280;15597;50.914;6.638;2024-02-14T08:21:26;100918.47;;;13.31;57.61
28344;BME280;15597;50.914;6.638;2024-02-14T08:23:53;100919.25;;;13.35;57.67
28344;BME280;15597;50.914;6.638;2024-02-14T08:26:19;100919.16;;;13.38;57.55
28344;BME280;15597;50.914;6.638;2024-02-14T08:28:44;100915.56;;;13.42;57.70
28344;BME280;15597;50.914;6.638;2024-02-14T08:31:10;100928.59;;;13.47;57.97
28344;BME280;15597;50.914;6.638;2024-02-14T08:33:37;100929.34;;;13.50;57.38
28344;BME280;15597;50.914;6.638;2024-02-14T08:36:04;100924.91;;;13.52;57.61
28344;BME280;15597;50.914;6.638;2024-02-14T08:38:30;100924.91;;;13.52;57.36
28344;BME280;15597;50.914;6.638;2024-02-14T08:40:56;100923.25;;;13.50;56.75
28344;BME280;15597;50.914;6.638;2024-02-14T08:43:22;100929.44;;;13.47;56.96
28344;BME280;15597;50.914;6.638;2024-02-14T08:45:50;100933.84;;;13.47;57.20
28344;BME280;15597;50.914;6.638;2024-02-14T08:48:17;100931.25;;;13.45;57.40
28344;BME280;15597;50.914;6.638;2024-02-14T08:50:43;100926.91;;;13.44;57.07
28344;BME280;15597;50.914;6.638;2024-02-14T08:53:09;100931.34;;;13.42;56.89
28344;BME280;15597;50.914;6.638;2024-02-14T08:55:35;100929.59;;;13.41;57.34
28344;BME280;15597;50.914;6.638;2024-02-14T08:58:01;100917.34;;;13.40;57.50
28344;BME280;15597;50.914;6.638;2024-02-14T09:00:27;100925.22;;;13.41;57.36
28344;BME280;15597;50.914;6.638;2024-02-14T09:02:53;100929.59;;;13.41;57.69
28344;BME280;15597;50.914;6.638;2024-02-14T09:05:18;100920.75;;;13.45;57.69
28344;BME280;15597;50.914;6.638;2024-02-14T09:07:44;100926.88;;;13.46;57.71
28344;BME280;15597;50.914;6.638;2024-02-14T09:10:10;100925.91;;;13.48;57.48
28344;BME280;15597;50.914;6.638;2024-02-14T09:12:38;100917.13;;;13.49;57.62
28344;BME280;15597;50.914;6.638;2024-02-14T09:15:06;100931.97;;;13.50;57.56
28344;BME280;15597;50.914;6.638;2024-02-14T09:17:32;100933.69;;;13.53;58.32
28344;BME280;15597;50.914;6.638;2024-02-14T09:19:58;100927.47;;;13.55;57.75
28344;BME280;15597;50.914;6.638;2024-02-14T09:22:23;100923.00;;;13.57;57.70
28344;BME280;15597;50.914;6.638;2024-02-14T09:24:50;100929.97;;;13.60;57.72
28344;BME280;15597;50.914;6.638;2024-02-14T09:27:16;100936.06;;;13.61;57.28
28344;BME280;15597;50.914;6.638;2024-02-14T09:29:42;100930.72;;;13.64;57.89
28344;BME280;15597;50.914;6.638;2024-02-14T09:32:07;100931.50;;;13.67;57.52
28344;BME280;15597;50.914;6.638;2024-02-14T09:34:34;100937.53;;;13.71;57.40
28344;BME280;15597;50.914;6.638;2024-02-14T09:37:00;100944.50;;;13.72;57.11
28344;BME280;15597;50.914;6.638;2024-02-14T09:39:25;100939.34;;;13.69;57.52
28344;BME280;15597;50.914;6.638;2024-02-14T09:41:52;100935.81;;;13.70;57.35
28344;BME280;15597;50.914;6.638;2024-02-14T09:44:20;100942.31;;;13.58;57.22
28344;BME280;15597;50.914;6.638;2024-02-14T09:46:47;100953.66;;;13.58;57.59
28344;BME280;15597;50.914;6.638;2024-02-14T09:49:14;100954.44;;;13.62;57.45
28344;BME280;15597;50.914;6.638;2024-02-14T09:51:41;100960.72;;;13.56;57.54
28344;BME280;15597;50.914;6.638;2024-02-14T09:54:09;100965.09;;;13.57;57.82
28344;BME280;15597;50.914;6.638;2024-02-14T09:56:49;100966.78;;;13.60;57.42
28344;BME280;15597;50.914;6.638;2024-02-14T09:59:16;100968.44;;;13.63;57.82
28344;BME280;15597;50.914;6.638;2024-02-14T10:01:43;100964.81;;;13.67;57.29
28344;BME280;15597;50.914;6.638;2024-02-14T10:04:09;100967.44;;;13.67;57.29
28344;BME280;15597;50.914;6.638;2024-02-14T10:06:35;100956.03;;;13.68;57.42
28344;BME280;15597;50.914;6.638;2024-02-14T10:09:02;100963.75;;;13.74;57.64
28344;BME280;15597;50.914;6.638;2024-02-14T10:11:28;100971.59;;;13.76;57.27
28344;BME280;15597;50.914;6.638;2024-02-14T10:13:53;100982.97;;;13.76;56.86
28344;BME280;15597;50.914;6.638;2024-02-14T10:16:22;100976.94;;;13.72;57.11
28344;BME280;15597;50.914;6.638;2024-02-14T10:18:48;100980.41;;;13.75;57.51
28344;BME280;15597;50.914;6.638;2024-02-14T10:21:16;100977.72;;;13.76;57.37
28344;BME280;15597;50.914;6.638;2024-02-14T10:23:43;100996.09;;;13.78;57.20
28344;BME280;15597;50.914;6.638;2024-02-14T10:26:10;100989.00;;;13.80;57.39
28344;BME280;15597;50.914;6.638;2024-02-14T10:28:37;100986.34;;;13.81;57.22
28344;BME280;15597;50.914;6.638;2024-02-14T10:31:05;100996.88;;;13.81;57.41
28344;BME280;15597;50.914;6.638;2024-02-14T10:33:31;100992.44;;;13.83;57.82
28344;BME280;15597;50.914;6.638;2024-02-14T10:35:57;100986.19;;;13.87;57.53
28344;BME280;15597;50.914;6.638;2024-02-14T10:38:24;100991.34;;;13.91;57.15
28344;BME280;15597;50.914;6.638;2024-02-14T10:40:51;100997.47;;;13.91;57.15
28344;BME280;15597;50.914;6.638;2024-02-14T10:43:17;100995.69;;;13.92;57.03
28344;BME280;15597;50.914;6.638;2024-02-14T10:45:43;100995.66;;;13.93;57.40
28344;BME280;15597;50.914;6.638;2024-02-14T10:48:12;100992.09;;;13.94;57.50
28344;BME280;15597;50.914;6.638;2024-02-14T10:50:41;100993.09;;;13.90;57.11
28344;BME280;15597;50.914;6.638;2024-02-14T10:53:13;100998.50;;;13.85;57.34
28344;BME280;15597;50.914;6.638;2024-02-14T10:55:40;101002.81;;;13.88;57.28
28344;BME280;15597;50.914;6.638;2024-02-14T10:58:07;100995.00;;;13.85;57.34
28344;BME280;15597;50.914;6.638;2024-02-14T11:00:33;101002.97;;;13.82;57.05
28344;BME280;15597;50.914;6.638;2024-02-14T11:02:59;100998.63;;;13.81;57.72
28344;BME280;15597;50.914;6.638;2024-02-14T11:05:26;100988.09;;;13.82;57.53
28344;BME280;15597;50.914;6.638;2024-02-14T11:07:51;100990.53;;;13.88;57.71
28344;BME280;15597;50.914;6.638;2024-02-14T11:10:20;100986.94;;;13.91;57.44
28344;BME280;15597;50.914;6.638;2024-02-14T11:12:46;100982.81;;;13.82;57.92
28344;BME280;15597;50.914;6.638;2024-02-14T11:15:17;100988.00;;;13.85;57.63
28344;BME280;15597;50.914;6.638;2024-02-14T11:17:44;100986.94;;;13.91;57.49
28344;BME280;15597;50.914;6.638;2024-02-14T11:25:38;100992.91;;;13.98;57.67
28344;BME280;15597;50.914;6.638;2024-02-14T11:30:39;100991.00;;;14.03;57.31
28344;BME280;15597;50.914;6.638;2024-02-14T11:35:48;100985.81;;;14.00;57.33
28344;BME280;15597;50.914;6.638;2024-02-14T11:38:19;100990.91;;;14.06;57.21
28344;BME280;15597;50.914;6.638;2024-02-14T11:40:45;100980.47;;;14.03;57.51
28344;BME280;15597;50.914;6.638;2024-02-14T11:43:15;100994.44;;;14.05;57.80
28344;BME280;15597;50.914;6.638;2024-02-14T11:45:42;100990.00;;;14.07;57.88
28344;BME280;15597;50.914;6.638;2024-02-14T11:48:14;100989.09;;;14.08;57.87
28344;BME280;15597;50.914;6.638;2024-02-14T11:50:41;100990.72;;;14.12;57.99
28344;BME280;15597;50.914;6.638;2024-02-14T11:53:07;100982.75;;;14.14;57.31
28344;BME280;15597;50.914;6.638;2024-02-14T11:55:40;100985.44;;;14.12;57.78
28344;BME280;15597;50.914;6.638;2024-02-14T11:58:10;100974.94;;;14.12;58.00
28344;BME280;15597;50.914;6.638;2024-02-14T12:00:46;100977.50;;;14.14;57.83
28344;BME280;15597;50.914;6.638;2024-02-14T12:03:15;100968.56;;;14.20;58.17
28344;BME280;15597;50.914;6.638;2024-02-14T12:05:42;100974.56;;;14.25;58.42
28344;BME280;15597;50.914;6.638;2024-02-14T12:08:13;100964.88;;;14.25;58.29
28344;BME280;15597;50.914;6.638;2024-02-14T12:10:39;100974.56;;;14.25;58.63
28344;BME280;15597;50.914;6.638;2024-02-14T12:13:11;100964.72;;;14.31;58.97
28344;BME280;15597;50.914;6.638;2024-02-14T12:15:50;100969.72;;;14.39;58.76
28344;BME280;15597;50.914;6.638;2024-02-14T12:18:17;100977.31;;;14.49;58.43
28344;BME280;15597;50.914;6.638;2024-02-14T12:20:46;100961.44;;;14.52;58.52
28344;BME280;15597;50.914;6.638;2024-02-14T12:23:15;100966.38;;;14.61;58.95
28344;BME280;15597;50.914;6.638;2024-02-14T12:25:45;100958.34;;;14.66;58.41
28344;BME280;15597;50.914;6.638;2024-02-14T12:28:18;100960.75;;;14.73;58.59
28344;BME280;15597;50.914;6.638;2024-02-14T12:30:46;100967.44;;;14.84;58.44
28344;BME280;15597;50.914;6.638;2024-02-14T12:33:15;100962.94;;;14.87;58.32
28344;BME280;15597;50.914;6.638;2024-02-14T12:35:45;100965.44;;;14.92;58.28
28344;BME280;15597;50.914;6.638;2024-02-14T12:38:12;100964.56;;;14.92;58.24
28344;BME280;15597;50.914;6.638;2024-02-14T12:40:39;100953.19;;;14.91;58.20
28344;BME280;15597;50.914;6.638;2024-02-14T12:43:10;100958.44;;;14.91;58.56
28344;BME280;15597;50.914;6.638;2024-02-14T12:45:37;100953.19;;;14.91;58.72
28344;BME280;15597;50.914;6.638;2024-02-14T12:48:03;100944.34;;;14.92;58.58
28344;BME280;15597;50.914;6.638;2024-02-14T12:50:30;100956.41;;;14.99;58.84
28344;BME280;15597;50.914;6.638;2024-02-14T12:52:56;100950.13;;;15.03;58.98
28344;BME280;15597;50.914;6.638;2024-02-14T12:55:21;100949.03;;;15.09;58.64
28344;BME280;15597;50.914;6.638;2024-02-14T12:57:51;100943.72;;;15.11;58.73
28344;BME280;15597;50.914;6.638;2024-02-14T13:00:17;100939.41;;;15.08;58.57
28344;BME280;15597;50.914;6.638;2024-02-14T13:02:43;100941.34;;;15.03;58.55
28344;BME280;15597;50.914;6.638;2024-02-14T13:05:09;100943.94;;;15.04;58.77